sensor_id;sensor_type;location;lat;lon;timestamp;temperature;humidity
11965;DHT22;6042;41.326;19.826;2022-08-30T00:02:30;21.30;99.90
11965;DHT22;6042;41.326;19.826;2022-08-30T00:04:59;21.30;99.90
11965;DHT22;6042;41.326;19.826;2022-08-30T00:07:28;21.30;99.90
11965;DHT22;6042;41.326;19.826;2022-08-30T00:09:58;21.30;99.90
11965;DHT22;6042;41.326;19.826;2022-08-30T00:12:27;21.20;99.90
11965;DHT22;6042;41.326;19.826;2022-08-30T00:14:57;21.20;99.90
11965;DHT22;6042;41.326;19.826;2022-08-30T00:17:26;21.20;99.90
11965;DHT22;6042;41.326;19.826;2022-08-30T00:19:55;21.10;99.90
11965;DHT22;6042;41.326;19.826;2022-08-30T00:22:24;21.10;99.90
11965;DHT22;6042;41.326;19.826;2022-08-30T00:24:52;21.20;99.90
11965;DHT22;6042;41.326;19.826;2022-08-30T00:27:22;21.20;99.90
11965;DHT22;6042;41.326;19.826;2022-08-30T00:29:51;21.30;99.90
11965;DHT22;6042;41.326;19.826;2022-08-30T00:32:20;21.20;99.90
11965;DHT22;6042;41.326;19.826;2022-08-30T00:34:51;21.20;99.90
11965;DHT22;6042;41.326;19.826;2022-08-30T00:37:19;21.10;99.90
11965;DHT22;6042;41.326;19.826;2022-08-30T00:39:48;21.10;99.90
11965;DHT22;6042;41.326;19.826;2022-08-30T00:42:18;21.10;99.90
11965;DHT22;6042;41.326;19.826;2022-08-30T00:44:48;21.10;99.90
11965;DHT22;6042;41.326;19.826;2022-08-30T00:47:18;21.10;99.90
11965;DHT22;6042;41.326;19.826;2022-08-30T00:49:50;21.00;99.90
11965;DHT22;6042;41.326;19.826;2022-08-30T00:52:20;21.00;99.90
11965;DHT22;6042;41.326;19.826;2022-08-30T00:54:51;20.90;99.90
11965;DHT22;6042;41.326;19.826;2022-08-30T00:57:20;20.90;99.90
11965;DHT22;6042;41.326;19.826;2022-08-30T00:59:50;20.90;99.90
11965;DHT22;6042;41.326;19.826;2022-08-30T01:02:21;20.90;99.90
11965;DHT22;6042;41.326;19.826;2022-08-30T01:04:51;20.90;99.90
11965;DHT22;6042;41.326;19.826;2022-08-30T01:07:21;20.80;99.90
11965;DHT22;6042;41.326;19.826;2022-08-30T01:09:50;20.80;99.90
11965;DHT22;6042;41.326;19.826;2022-08-30T01:12:18;20.80;99.90
11965;DHT22;6042;41.326;19.826;2022-08-30T01:14:47;21.00;99.90
11965;DHT22;6042;41.326;19.826;2022-08-30T01:17:19;20.90;99.90
11965;DHT22;6042;41.326;19.826;2022-08-30T01:19:53;20.80;99.90
11965;DHT22;6042;41.326;19.826;2022-08-30T01:22:26;20.80;99.90
11965;DHT22;6042;41.326;19.826;2022-08-30T01:24:59;20.80;99.90
11965;DHT22;6042;41.326;19.826;2022-08-30T01:27:28;20.90;99.90
11965;DHT22;6042;41.326;19.826;2022-08-30T01:29:58;20.90;99.90
11965;DHT22;6042;41.326;19.826;2022-08-30T01:32:29;20.90;99.90
11965;DHT22;6042;41.326;19.826;2022-08-30T01:35:00;20.80;99.90
11965;DHT22;6042;41.326;19.826;2022-08-30T01:37:30;20.80;99.90
11965;DHT22;6042;41.326;19.826;2022-08-30T01:40:04;20.90;99.90
11965;DHT22;6042;41.326;19.826;2022-08-30T01:42:34;21.00;99.90
11965;DHT22;6042;41.326;19.826;2022-08-30T01:45:03;20.90;99.90
11965;DHT22;6042;41.326;19.826;2022-08-30T01:47:32;20.80;99.90
11965;DHT22;6042;41.326;19.826;2022-08-30T01:50:00;20.80;99.90
11965;DHT22;6042;41.326;19.826;2022-08-30T01:52:29;20.80;99.90
11965;DHT22;6042;41.326;19.826;2022-08-30T01:54:58;20.80;99.90
11965;DHT22;6042;41.326;19.826;2022-08-30T01:57:28;20.80;99.90
11965;DHT22;6042;41.326;19.826;2022-08-30T01:59:57;20.80;99.90
11965;DHT22;6042;41.326;19.826;2022-08-30T02:02:27;20.80;99.90
11965;DHT22;6042;41.326;19.826;2022-08-30T02:04:57;20.80;99.90
11965;DHT22;6042;41.326;19.826;2022-08-30T02:07:26;20.80;99.90
11965;DHT22;6042;41.326;19.826;2022-08-30T02:09:54;20.90;99.90
11965;DHT22;6042;41.326;19.826;2022-08-30T02:12:23;20.80;99.90
11965;DHT22;6042;41.326;19.826;2022-08-30T02:14:53;20.80;99.90
11965;DHT22;6042;41.326;19.826;2022-08-30T02:17:22;20.90;99.90
11965;DHT22;6042;41.326;19.826;2022-08-30T02:19:51;20.90;99.90
11965;DHT22;6042;41.326;19.826;2022-08-30T02:22:19;21.00;99.90
11965;DHT22;6042;41.326;19.826;2022-08-30T02:24:48;21.10;99.90
11965;DHT22;6042;41.326;19.826;2022-08-30T02:27:17;21.00;99.90
11965;DHT22;6042;41.326;19.826;2022-08-30T02:29:45;21.10;99.90
11965;DHT22;6042;41.326;19.826;2022-08-30T02:32:15;21.10;99.90
11965;DHT22;6042;41.326;19.826;2022-08-30T02:34:44;21.20;99.90
11965;DHT22;6042;41.326;19.826;2022-08-30T02:37:13;21.20;99.90
11965;DHT22;6042;41.326;19.826;2022-08-30T02:39:42;21.20;99.90
11965;DHT22;6042;41.326;19.826;2022-08-30T02:42:11;21.20;99.90
11965;DHT22;6042;41.326;19.826;2022-08-30T02:44:40;21.30;99.90
11965;DHT22;6042;41.326;19.826;2022-08-30T02:47:09;21.30;99.90
11965;DHT22;6042;41.326;19.826;2022-08-30T02:49:40;21.30;99.90
11965;DHT22;6042;41.326;19.826;2022-08-30T02:52:09;21.30;99.90
11965;DHT22;6042;41.326;19.826;2022-08-30T02:54:37;21.20;99.90
11965;DHT22;6042;41.326;19.826;2022-08-30T02:57:06;21.30;99.90
11965;DHT22;6042;41.326;19.826;2022-08-30T02:59:46;21.20;99.90
11965;DHT22;6042;41.326;19.826;2022-08-30T03:02:15;21.30;99.90
11965;DHT22;6042;41.326;19.826;2022-08-30T03:04:45;21.40;99.90
11965;DHT22;6042;41.326;19.826;2022-08-30T03:07:15;21.40;99.90
11965;DHT22;6042;41.326;19.826;2022-08-30T03:09:43;21.40;99.90
11965;DHT22;6042;41.326;19.826;2022-08-30T03:12:12;21.30;99.90
11965;DHT22;6042;41.326;19.826;2022-08-30T03:14:41;21.30;99.90
11965;DHT22;6042;41.326;19.826;2022-08-30T03:17:09;21.10;99.90
11965;DHT22;6042;41.326;19.826;2022-08-30T03:19:42;21.20;99.90
11965;DHT22;6042;41.326;19.826;2022-08-30T03:22:13;21.30;99.90
11965;DHT22;6042;41.326;19.826;2022-08-30T03:24:42;21.30;99.90
11965;DHT22;6042;41.326;19.826;2022-08-30T03:27:11;21.20;99.90
11965;DHT22;6042;41.326;19.826;2022-08-30T03:29:40;21.30;99.90
11965;DHT22;6042;41.326;19.826;2022-08-30T03:32:09;21.10;99.90
11965;DHT22;6042;41.326;19.826;2022-08-30T03:34:37;21.20;99.90
11965;DHT22;6042;41.326;19.826;2022-08-30T03:37:07;21.20;99.90
11965;DHT22;6042;41.326;19.826;2022-08-30T03:39:37;21.20;99.90
11965;DHT22;6042;41.326;19.826;2022-08-30T03:42:06;21.20;99.90
11965;DHT22;6042;41.326;19.826;2022-08-30T03:44:37;21.20;99.90
11965;DHT22;6042;41.326;19.826;2022-08-30T03:47:07;21.20;99.90
11965;DHT22;6042;41.326;19.826;2022-08-30T03:49:36;21.20;99.90
11965;DHT22;6042;41.326;19.826;2022-08-30T03:52:05;21.30;99.90
11965;DHT22;6042;41.326;19.826;2022-08-30T03:54:33;21.30;99.90
11965;DHT22;6042;41.326;19.826;2022-08-30T03:57:05;21.20;99.90
11965;DHT22;6042;41.326;19.826;2022-08-30T03:59:42;21.20;99.90
11965;DHT22;6042;41.326;19.826;2022-08-30T04:02:10;21.20;99.90
11965;DHT22;6042;41.326;19.826;2022-08-30T04:04:40;21.20;99.90
11965;DHT22;6042;41.326;19.826;2022-08-30T04:07:09;21.20;99.90
11965;DHT22;6042;41.326;19.826;2022-08-30T04:09:37;21.00;99.90
11965;DHT22;6042;41.326;19.826;2022-08-30T04:12:08;21.10;99.90
11965;DHT22;6042;41.326;19.826;2022-08-30T04:14:36;21.10;99.90
11965;DHT22;6042;41.326;19.826;2022-08-30T04:17:06;21.10;99.90
11965;DHT22;6042;41.326;19.826;2022-08-30T04:19:35;21.10;99.90
11965;DHT22;6042;41.326;19.826;2022-08-30T04:22:03;21.00;99.90
11965;DHT22;6042;41.326;19.826;2022-08-30T04:24:32;21.00;99.90
11965;DHT22;6042;41.326;19.826;2022-08-30T04:27:01;21.10;99.90
11965;DHT22;6042;41.326;19.826;2022-08-30T04:29:31;21.20;99.90
11965;DHT22;6042;41.326;19.826;2022-08-30T04:32:00;21.20;99.90
11965;DHT22;6042;41.326;19.826;2022-08-30T04:34:29;21.20;99.90
11965;DHT22;6042;41.326;19.826;2022-08-30T04:36:58;21.20;99.90
11965;DHT22;6042;41.326;19.826;2022-08-30T04:39:26;21.30;99.90
11965;DHT22;6042;41.326;19.826;2022-08-30T04:41:55;21.30;99.90
11965;DHT22;6042;41.326;19.826;2022-08-30T04:44:24;21.30;99.90
11965;DHT22;6042;41.326;19.826;2022-08-30T04:46:54;21.30;99.90
11965;DHT22;6042;41.326;19.826;2022-08-30T04:49:23;21.40;99.90
11965;DHT22;6042;41.326;19.826;2022-08-30T04:51:52;21.40;99.90
11965;DHT22;6042;41.326;19.826;2022-08-30T04:54:20;21.30;99.90
11965;DHT22;6042;41.326;19.826;2022-08-30T04:56:49;21.30;99.90
11965;DHT22;6042;41.326;19.826;2022-08-30T04:59:17;21.40;99.90
11965;DHT22;6042;41.326;19.826;2022-08-30T05:01:46;21.40;99.90
11965;DHT22;6042;41.326;19.826;2022-08-30T05:04:16;21.30;99.90
11965;DHT22;6042;41.326;19.826;2022-08-30T05:06:45;21.30;99.90
11965;DHT22;6042;41.326;19.826;2022-08-30T05:09:13;21.30;99.90
11965;DHT22;6042;41.326;19.826;2022-08-30T05:11:42;21.30;99.90
11965;DHT22;6042;41.326;19.826;2022-08-30T05:14:11;21.40;99.90
11965;DHT22;6042;41.326;19.826;2022-08-30T05:16:40;21.40;99.90
11965;DHT22;6042;41.326;19.826;2022-08-30T05:19:08;21.40;99.90
11965;DHT22;6042;41.326;19.826;2022-08-30T05:21:41;21.40;99.90
11965;DHT22;6042;41.326;19.826;2022-08-30T05:24:10;21.40;99.90
11965;DHT22;6042;41.326;19.826;2022-08-30T05:26:39;21.50;99.90
11965;DHT22;6042;41.326;19.826;2022-08-30T05:29:07;21.70;99.90
11965;DHT22;6042;41.326;19.826;2022-08-30T05:31:36;21.70;99.90
11965;DHT22;6042;41.326;19.826;2022-08-30T05:34:05;21.70;99.90
11965;DHT22;6042;41.326;19.826;2022-08-30T05:36:35;21.70;99.90
11965;DHT22;6042;41.326;19.826;2022-08-30T05:39:06;21.70;99.90
11965;DHT22;6042;41.326;19.826;2022-08-30T05:41:36;21.70;99.90
11965;DHT22;6042;41.326;19.826;2022-08-30T05:44:07;21.70;99.90
11965;DHT22;6042;41.326;19.826;2022-08-30T05:46:37;21.70;99.90
11965;DHT22;6042;41.326;19.826;2022-08-30T05:49:11;21.90;99.90
11965;DHT22;6042;41.326;19.826;2022-08-30T05:51:40;21.90;99.90
11965;DHT22;6042;41.326;19.826;2022-08-30T05:54:12;21.90;99.90
11965;DHT22;6042;41.326;19.826;2022-08-30T05:56:43;22.00;99.90
11965;DHT22;6042;41.326;19.826;2022-08-30T05:59:12;22.10;99.90
11965;DHT22;6042;41.326;19.826;2022-08-30T06:01:43;22.20;99.90
11965;DHT22;6042;41.326;19.826;2022-08-30T06:04:13;22.30;99.90
11965;DHT22;6042;41.326;19.826;2022-08-30T06:06:43;22.30;99.90
11965;DHT22;6042;41.326;19.826;2022-08-30T06:09:13;22.40;99.90
11965;DHT22;6042;41.326;19.826;2022-08-30T06:11:43;22.50;99.90
11965;DHT22;6042;41.326;19.826;2022-08-30T06:14:12;22.60;99.90
11965;DHT22;6042;41.326;19.826;2022-08-30T06:16:41;22.60;99.90
11965;DHT22;6042;41.326;19.826;2022-08-30T06:19:13;22.70;99.90
11965;DHT22;6042;41.326;19.826;2022-08-30T06:21:46;22.80;99.90
11965;DHT22;6042;41.326;19.826;2022-08-30T06:24:17;22.90;99.90
11965;DHT22;6042;41.326;19.826;2022-08-30T06:27:02;23.00;99.90
11965;DHT22;6042;41.326;19.826;2022-08-30T06:29:30;23.10;99.90
11965;DHT22;6042;41.326;19.826;2022-08-30T06:32:00;23.10;99.90
11965;DHT22;6042;41.326;19.826;2022-08-30T06:34:28;23.20;99.90
11965;DHT22;6042;41.326;19.826;2022-08-30T06:36:57;23.30;99.90
11965;DHT22;6042;41.326;19.826;2022-08-30T06:39:27;23.40;99.90
11965;DHT22;6042;41.326;19.826;2022-08-30T06:41:56;23.50;99.90
11965;DHT22;6042;41.326;19.826;2022-08-30T06:44:31;23.60;99.90
11965;DHT22;6042;41.326;19.826;2022-08-30T06:47:01;23.70;99.90
11965;DHT22;6042;41.326;19.826;2022-08-30T06:49:29;23.70;99.90
11965;DHT22;6042;41.326;19.826;2022-08-30T06:51:58;23.70;99.90
11965;DHT22;6042;41.326;19.826;2022-08-30T06:54:28;23.70;99.90
11965;DHT22;6042;41.326;19.826;2022-08-30T06:56:57;23.80;99.90
11965;DHT22;6042;41.326;19.826;2022-08-30T06:59:26;23.90;99.90
11965;DHT22;6042;41.326;19.826;2022-08-30T07:01:54;24.10;99.90
11965;DHT22;6042;41.326;19.826;2022-08-30T07:04:24;24.20;99.90
11965;DHT22;6042;41.326;19.826;2022-08-30T07:06:53;24.40;99.90
11965;DHT22;6042;41.326;19.826;2022-08-30T07:09:24;24.50;99.90
11965;DHT22;6042;41.326;19.826;2022-08-30T07:11:54;24.60;99.90
11965;DHT22;6042;41.326;19.826;2022-08-30T07:14:23;24.60;99.90
11965;DHT22;6042;41.326;19.826;2022-08-30T07:16:52;24.70;99.90
11965;DHT22;6042;41.326;19.826;2022-08-30T07:19:21;24.80;99.90
11965;DHT22;6042;41.326;19.826;2022-08-30T07:21:49;24.80;99.90
11965;DHT22;6042;41.326;19.826;2022-08-30T07:24:19;24.90;99.90
11965;DHT22;6042;41.326;19.826;2022-08-30T07:26:49;25.10;99.90
11965;DHT22;6042;41.326;19.826;2022-08-30T07:29:19;25.30;99.90
11965;DHT22;6042;41.326;19.826;2022-08-30T07:31:48;25.50;99.90
11965;DHT22;6042;41.326;19.826;2022-08-30T07:34:17;25.60;99.90
11965;DHT22;6042;41.326;19.826;2022-08-30T07:36:49;25.70;99.90
11965;DHT22;6042;41.326;19.826;2022-08-30T07:39:18;25.80;99.90
11965;DHT22;6042;41.326;19.826;2022-08-30T07:41:46;25.90;99.90
11965;DHT22;6042;41.326;19.826;2022-08-30T07:44:17;26.10;99.90
11965;DHT22;6042;41.326;19.826;2022-08-30T07:46:50;26.10;99.90
11965;DHT22;6042;41.326;19.826;2022-08-30T07:49:19;26.30;99.90
11965;DHT22;6042;41.326;19.826;2022-08-30T07:51:48;26.30;99.90
11965;DHT22;6042;41.326;19.826;2022-08-30T07:54:17;26.20;99.90
11965;DHT22;6042;41.326;19.826;2022-08-30T07:56:45;26.20;99.90
11965;DHT22;6042;41.326;19.826;2022-08-30T07:59:14;26.30;99.90
11965;DHT22;6042;41.326;19.826;2022-08-30T08:01:43;26.30;99.90
11965;DHT22;6042;41.326;19.826;2022-08-30T08:04:13;26.30;99.90
11965;DHT22;6042;41.326;19.826;2022-08-30T08:06:42;26.30;99.90
11965;DHT22;6042;41.326;19.826;2022-08-30T08:09:11;26.30;99.90
11965;DHT22;6042;41.326;19.826;2022-08-30T08:11:40;26.40;99.90
11965;DHT22;6042;41.326;19.826;2022-08-30T08:14:08;26.50;99.90
11965;DHT22;6042;41.326;19.826;2022-08-30T08:16:37;26.60;99.90
11965;DHT22;6042;41.326;19.826;2022-08-30T08:19:08;26.70;99.90
11965;DHT22;6042;41.326;19.826;2022-08-30T08:21:38;26.80;99.90
11965;DHT22;6042;41.326;19.826;2022-08-30T08:24:07;26.90;99.90
11965;DHT22;6042;41.326;19.826;2022-08-30T08:26:36;27.00;99.90
11965;DHT22;6042;41.326;19.826;2022-08-30T08:29:11;27.10;99.90
11965;DHT22;6042;41.326;19.826;2022-08-30T08:31:41;27.20;99.90
11965;DHT22;6042;41.326;19.826;2022-08-30T08:34:09;27.20;99.90
11965;DHT22;6042;41.326;19.826;2022-08-30T08:36:40;27.30;99.90
11965;DHT22;6042;41.326;19.826;2022-08-30T08:39:09;27.40;99.90
11965;DHT22;6042;41.326;19.826;2022-08-30T08:41:49;27.50;99.90
11965;DHT22;6042;41.326;19.826;2022-08-30T08:44:31;27.50;99.90
11965;DHT22;6042;41.326;19.826;2022-08-30T08:47:10;27.60;99.90
11965;DHT22;6042;41.326;19.826;2022-08-30T08:49:43;27.50;99.90
11965;DHT22;6042;41.326;19.826;2022-08-30T08:52:17;27.50;99.90
11965;DHT22;6042;41.326;19.826;2022-08-30T08:55:08;27.50;99.90
11965;DHT22;6042;41.326;19.826;2022-08-30T08:57:39;27.70;99.90
11965;DHT22;6042;41.326;19.826;2022-08-30T09:00:10;27.70;99.90
11965;DHT22;6042;41.326;19.826;2022-08-30T09:02:43;27.80;99.90
11965;DHT22;6042;41.326;19.826;2022-08-30T09:05:14;27.90;99.90
11965;DHT22;6042;41.326;19.826;2022-08-30T09:07:48;28.10;99.90
11965;DHT22;6042;41.326;19.826;2022-08-30T09:10:19;28.20;99.90
11965;DHT22;6042;41.326;19.826;2022-08-30T09:13:08;28.30;99.90
11965;DHT22;6042;41.326;19.826;2022-08-30T09:15:40;28.40;99.20
11965;DHT22;6042;41.326;19.826;2022-08-30T09:18:10;28.50;98.40
11965;DHT22;6042;41.326;19.826;2022-08-30T09:20:47;28.40;98.60
11965;DHT22;6042;41.326;19.826;2022-08-30T09:23:26;28.50;98.50
11965;DHT22;6042;41.326;19.826;2022-08-30T09:25:58;28.30;98.90
11965;DHT22;6042;41.326;19.826;2022-08-30T09:28:29;28.30;99.10
11965;DHT22;6042;41.326;19.826;2022-08-30T09:31:02;28.30;98.60
11965;DHT22;6042;41.326;19.826;2022-08-30T09:33:37;28.20;98.60
11965;DHT22;6042;41.326;19.826;2022-08-30T09:36:12;28.20;98.70
11965;DHT22;6042;41.326;19.826;2022-08-30T09:38:43;28.30;98.80
11965;DHT22;6042;41.326;19.826;2022-08-30T09:41:28;28.20;98.70
11965;DHT22;6042;41.326;19.826;2022-08-30T09:44:06;28.20;98.80
11965;DHT22;6042;41.326;19.826;2022-08-30T09:46:42;28.30;98.90
11965;DHT22;6042;41.326;19.826;2022-08-30T09:49:28;28.30;98.60
11965;DHT22;6042;41.326;19.826;2022-08-30T09:52:03;28.40;98.60
11965;DHT22;6042;41.326;19.826;2022-08-30T09:54:41;28.40;98.40
11965;DHT22;6042;41.326;19.826;2022-08-30T09:57:18;28.40;98.70
11965;DHT22;6042;41.326;19.826;2022-08-30T10:00:05;28.40;98.70
11965;DHT22;6042;41.326;19.826;2022-08-30T10:03:07;28.50;99.00
11965;DHT22;6042;41.326;19.826;2022-08-30T10:05:45;28.60;98.80
11965;DHT22;6042;41.326;19.826;2022-08-30T10:08:23;28.70;98.90
11965;DHT22;6042;41.326;19.826;2022-08-30T10:11:00;28.70;98.90
11965;DHT22;6042;41.326;19.826;2022-08-30T10:13:41;28.70;98.90
11965;DHT22;6042;41.326;19.826;2022-08-30T10:16:26;28.70;99.20
11965;DHT22;6042;41.326;19.826;2022-08-30T10:19:05;28.80;99.10
11965;DHT22;6042;41.326;19.826;2022-08-30T10:21:40;28.90;99.10
11965;DHT22;6042;41.326;19.826;2022-08-30T10:24:13;28.90;99.90
11965;DHT22;6042;41.326;19.826;2022-08-30T10:26:52;29.00;99.80
11965;DHT22;6042;41.326;19.826;2022-08-30T10:29:27;29.20;98.80
11965;DHT22;6042;41.326;19.826;2022-08-30T10:32:00;29.20;98.80
11965;DHT22;6042;41.326;19.826;2022-08-30T10:34:35;29.30;98.10
11965;DHT22;6042;41.326;19.826;2022-08-30T10:37:09;29.20;97.90
11965;DHT22;6042;41.326;19.826;2022-08-30T10:39:45;29.00;97.70
11965;DHT22;6042;41.326;19.826;2022-08-30T10:42:19;29.10;98.30
11965;DHT22;6042;41.326;19.826;2022-08-30T10:44:52;29.20;97.90
11965;DHT22;6042;41.326;19.826;2022-08-30T10:47:27;29.40;97.80
11965;DHT22;6042;41.326;19.826;2022-08-30T10:50:05;29.60;97.40
11965;DHT22;6042;41.326;19.826;2022-08-30T10:52:40;29.60;96.80
11965;DHT22;6042;41.326;19.826;2022-08-30T10:55:14;29.50;96.90
11965;DHT22;6042;41.326;19.826;2022-08-30T10:57:46;29.50;96.70
11965;DHT22;6042;41.326;19.826;2022-08-30T11:00:22;29.60;96.70
11965;DHT22;6042;41.326;19.826;2022-08-30T11:06:07;29.90;96.10
11965;DHT22;6042;41.326;19.826;2022-08-30T11:11:36;30.10;95.40
11965;DHT22;6042;41.326;19.826;2022-08-30T11:14:13;30.20;95.70
11965;DHT22;6042;41.326;19.826;2022-08-30T11:16:46;30.20;95.90
11965;DHT22;6042;41.326;19.826;2022-08-30T11:19:19;30.30;95.10
11965;DHT22;6042;41.326;19.826;2022-08-30T11:21:49;30.30;94.20
11965;DHT22;6042;41.326;19.826;2022-08-30T11:24:20;30.50;94.00
11965;DHT22;6042;41.326;19.826;2022-08-30T11:27:03;30.80;94.10
11965;DHT22;6042;41.326;19.826;2022-08-30T11:29:40;30.70;93.40
11965;DHT22;6042;41.326;19.826;2022-08-30T11:32:21;30.60;93.80
11965;DHT22;6042;41.326;19.826;2022-08-30T11:34:59;30.80;93.20
11965;DHT22;6042;41.326;19.826;2022-08-30T11:37:37;30.80;92.70
11965;DHT22;6042;41.326;19.826;2022-08-30T11:40:09;30.80;93.00
11965;DHT22;6042;41.326;19.826;2022-08-30T11:42:44;31.00;93.00
11965;DHT22;6042;41.326;19.826;2022-08-30T11:45:46;31.10;92.40
11965;DHT22;6042;41.326;19.826;2022-08-30T11:48:44;30.90;92.10
11965;DHT22;6042;41.326;19.826;2022-08-30T11:54:51;31.00;91.50
11965;DHT22;6042;41.326;19.826;2022-08-30T11:57:29;31.10;92.00
11965;DHT22;6042;41.326;19.826;2022-08-30T12:00:06;31.30;92.20
11965;DHT22;6042;41.326;19.826;2022-08-30T12:02:51;31.40;91.80
11965;DHT22;6042;41.326;19.826;2022-08-30T12:05:44;31.50;92.20
11965;DHT22;6042;41.326;19.826;2022-08-30T12:08:43;31.70;92.20
11965;DHT22;6042;41.326;19.826;2022-08-30T12:14:47;31.30;91.90
11965;DHT22;6042;41.326;19.826;2022-08-30T12:17:25;31.30;91.80
11965;DHT22;6042;41.326;19.826;2022-08-30T12:20:27;31.40;91.70
11965;DHT22;6042;41.326;19.826;2022-08-30T12:23:14;31.50;91.90
11965;DHT22;6042;41.326;19.826;2022-08-30T12:25:44;31.90;92.00
11965;DHT22;6042;41.326;19.826;2022-08-30T12:28:17;31.90;92.10
11965;DHT22;6042;41.326;19.826;2022-08-30T12:30:48;31.90;92.10
11965;DHT22;6042;41.326;19.826;2022-08-30T12:33:25;31.80;91.90
11965;DHT22;6042;41.326;19.826;2022-08-30T12:35:57;32.00;92.30
11965;DHT22;6042;41.326;19.826;2022-08-30T12:38:28;31.90;91.00
11965;DHT22;6042;41.326;19.826;2022-08-30T12:41:00;32.10;91.20
11965;DHT22;6042;41.326;19.826;2022-08-30T12:43:36;32.20;91.50
11965;DHT22;6042;41.326;19.826;2022-08-30T12:46:10;32.20;90.70
11965;DHT22;6042;41.326;19.826;2022-08-30T12:48:42;32.20;90.10
11965;DHT22;6042;41.326;19.826;2022-08-30T12:51:30;32.20;90.80
11965;DHT22;6042;41.326;19.826;2022-08-30T12:54:05;31.90;91.10
11965;DHT22;6042;41.326;19.826;2022-08-30T12:56:57;31.70;91.10
11965;DHT22;6042;41.326;19.826;2022-08-30T12:59:49;31.50;92.00
11965;DHT22;6042;41.326;19.826;2022-08-30T13:02:27;31.60;91.90
11965;DHT22;6042;41.326;19.826;2022-08-30T13:05:34;32.00;91.60
11965;DHT22;6042;41.326;19.826;2022-08-30T13:08:17;32.00;91.90
11965;DHT22;6042;41.326;19.826;2022-08-30T13:10:56;32.20;91.90
11965;DHT22;6042;41.326;19.826;2022-08-30T13:13:28;32.20;91.80
11965;DHT22;6042;41.326;19.826;2022-08-30T13:16:20;32.30;91.60
11965;DHT22;6042;41.326;19.826;2022-08-30T13:21:49;32.70;90.60
11965;DHT22;6042;41.326;19.826;2022-08-30T13:24:20;32.80;90.40
11965;DHT22;6042;41.326;19.826;2022-08-30T13:26:53;32.80;90.20
11965;DHT22;6042;41.326;19.826;2022-08-30T13:29:25;32.50;90.50
11965;DHT22;6042;41.326;19.826;2022-08-30T13:31:54;32.80;90.30
11965;DHT22;6042;41.326;19.826;2022-08-30T13:34:23;33.10;90.00
11965;DHT22;6042;41.326;19.826;2022-08-30T13:36:55;33.70;89.40
11965;DHT22;6042;41.326;19.826;2022-08-30T13:39:26;34.30;87.80
11965;DHT22;6042;41.326;19.826;2022-08-30T13:41:55;34.50;87.30
11965;DHT22;6042;41.326;19.826;2022-08-30T13:44:44;33.90;88.30
11965;DHT22;6042;41.326;19.826;2022-08-30T13:47:14;34.30;88.10
11965;DHT22;6042;41.326;19.826;2022-08-30T13:50:01;34.10;87.40
11965;DHT22;6042;41.326;19.826;2022-08-30T13:52:30;34.10;86.80
11965;DHT22;6042;41.326;19.826;2022-08-30T13:55:03;34.40;85.30
11965;DHT22;6042;41.326;19.826;2022-08-30T13:57:33;35.00;84.20
11965;DHT22;6042;41.326;19.826;2022-08-30T14:00:22;35.40;83.40
11965;DHT22;6042;41.326;19.826;2022-08-30T14:02:52;35.70;83.60
11965;DHT22;6042;41.326;19.826;2022-08-30T14:05:27;35.50;84.30
11965;DHT22;6042;41.326;19.826;2022-08-30T14:08:19;35.30;85.10
11965;DHT22;6042;41.326;19.826;2022-08-30T14:11:11;34.70;86.20
11965;DHT22;6042;41.326;19.826;2022-08-30T14:13:45;34.70;87.40
11965;DHT22;6042;41.326;19.826;2022-08-30T14:16:35;34.50;89.00
11965;DHT22;6042;41.326;19.826;2022-08-30T14:19:05;33.90;90.50
11965;DHT22;6042;41.326;19.826;2022-08-30T14:21:34;34.10;90.40
11965;DHT22;6042;41.326;19.826;2022-08-30T14:24:03;34.20;90.90
11965;DHT22;6042;41.326;19.826;2022-08-30T14:26:36;34.10;91.10
11965;DHT22;6042;41.326;19.826;2022-08-30T14:29:08;34.00;91.30
11965;DHT22;6042;41.326;19.826;2022-08-30T14:31:37;33.70;90.90
11965;DHT22;6042;41.326;19.826;2022-08-30T14:34:07;33.10;91.80
11965;DHT22;6042;41.326;19.826;2022-08-30T14:36:38;32.60;92.20
11965;DHT22;6042;41.326;19.826;2022-08-30T14:39:10;32.40;92.30
11965;DHT22;6042;41.326;19.826;2022-08-30T14:41:43;31.90;93.10
11965;DHT22;6042;41.326;19.826;2022-08-30T14:44:14;31.50;93.60
11965;DHT22;6042;41.326;19.826;2022-08-30T14:46:43;31.10;94.30
11965;DHT22;6042;41.326;19.826;2022-08-30T14:49:13;30.90;95.20
11965;DHT22;6042;41.326;19.826;2022-08-30T14:51:42;30.70;95.70
11965;DHT22;6042;41.326;19.826;2022-08-30T14:54:12;30.30;96.70
11965;DHT22;6042;41.326;19.826;2022-08-30T14:56:42;30.20;97.10
11965;DHT22;6042;41.326;19.826;2022-08-30T14:59:12;30.00;97.70
11965;DHT22;6042;41.326;19.826;2022-08-30T15:01:43;29.80;98.00
11965;DHT22;6042;41.326;19.826;2022-08-30T15:04:13;29.70;98.50
11965;DHT22;6042;41.326;19.826;2022-08-30T15:06:45;29.60;98.60
11965;DHT22;6042;41.326;19.826;2022-08-30T15:09:16;29.50;99.10
11965;DHT22;6042;41.326;19.826;2022-08-30T15:11:52;29.20;99.80
11965;DHT22;6042;41.326;19.826;2022-08-30T15:14:25;29.00;99.90
11965;DHT22;6042;41.326;19.826;2022-08-30T15:16:54;29.10;99.90
11965;DHT22;6042;41.326;19.826;2022-08-30T15:19:25;29.20;99.70
11965;DHT22;6042;41.326;19.826;2022-08-30T15:21:58;28.90;99.70
11965;DHT22;6042;41.326;19.826;2022-08-30T15:24:28;29.00;99.80
11965;DHT22;6042;41.326;19.826;2022-08-30T15:26:59;29.10;99.90
11965;DHT22;6042;41.326;19.826;2022-08-30T15:29:28;28.90;99.80
11965;DHT22;6042;41.326;19.826;2022-08-30T15:31:59;28.60;99.90
11965;DHT22;6042;41.326;19.826;2022-08-30T15:34:30;28.60;99.90
11965;DHT22;6042;41.326;19.826;2022-08-30T15:36:59;28.50;99.90
11965;DHT22;6042;41.326;19.826;2022-08-30T15:39:30;28.50;99.90
11965;DHT22;6042;41.326;19.826;2022-08-30T15:42:00;28.30;99.90
11965;DHT22;6042;41.326;19.826;2022-08-30T15:44:30;28.30;99.90
11965;DHT22;6042;41.326;19.826;2022-08-30T15:47:00;28.30;99.90
11965;DHT22;6042;41.326;19.826;2022-08-30T15:49:30;28.30;99.90
11965;DHT22;6042;41.326;19.826;2022-08-30T15:51:59;28.20;99.90
11965;DHT22;6042;41.326;19.826;2022-08-30T15:54:29;28.40;99.90
11965;DHT22;6042;41.326;19.826;2022-08-30T15:56:57;28.60;99.90
11965;DHT22;6042;41.326;19.826;2022-08-30T15:59:29;28.70;99.90
11965;DHT22;6042;41.326;19.826;2022-08-30T16:02:07;28.80;99.90
11965;DHT22;6042;41.326;19.826;2022-08-30T16:04:35;28.70;99.90
11965;DHT22;6042;41.326;19.826;2022-08-30T16:07:08;28.60;99.90
11965;DHT22;6042;41.326;19.826;2022-08-30T16:09:37;28.60;99.90
11965;DHT22;6042;41.326;19.826;2022-08-30T16:12:08;28.60;99.90
11965;DHT22;6042;41.326;19.826;2022-08-30T16:14:38;28.60;99.90
11965;DHT22;6042;41.326;19.826;2022-08-30T16:17:07;28.60;99.90
11965;DHT22;6042;41.326;19.826;2022-08-30T16:19:36;28.50;99.90